Fairbanks, AK (99711)

3:52 PM AKDT on July 07, 2015 (GMT -0800)
KAKFAIRB24 | | Change Station
CLOSE
Current Station
Personal Weather Station
Location: Fairbanks, AK
Elevation: 540 ft
Nearby Weather Stations
Active Advisory: Dense Smoke Advisory Active Notice: Record Report

Elev 540 ft 64.81 °N, 147.70 °W | Updated 2 minutes ago

Smoke
Smoke
65.8 °F
Feels Like 65.8 °F
N
0.0
Wind Variable Wind from West
Gusts 3.0 mph

Today
High -- | Low -- °F
--% Chance of Precip.
Yesterday
High -- | Low -- °F
Precip. -- in
3:26 AM 0:21 AM
Waning Gibbous, 60% visible
Pressure 29.84 in
Visibility 1.5 miles
Clouds Mostly Cloudy 1500 ft
Overcast 7000 ft
Dew Point 54 °F
Humidity 67%
Rainfall in
Snow Depth Not available.
UV 2 out of 12
Pollen Not available.
Air Quality Not available.
Flu Activity Not available.
METAR PAFB 072255Z 32006KT 1 1/2SM FU BKN015 OVC070 19/10 A2984 RMK FU BKN015 SLP105

More Conditions Fewer Conditions

Pressure 29.84 in
Visibility 1.5 miles
Clouds Mostly Cloudy 1500 ft
Overcast 7000 ft
Dew Point 54 °F
Humidity 67%
Rainfall in
Snow Depth Not available.
UV 2 out of 12
Pollen Not available.
Air Quality Not available.
Flu Activity Not available.
METAR PAFB 072255Z 32006KT 1 1/2SM FU BKN015 OVC070 19/10 A2984 RMK FU BKN015 SLP105

More Conditions Fewer Conditions

10-Day Weather Forecast

×

Almanac

Astronomy

Jul. 07, 2015 Rise Set
Actual Time
Civil Twilight
Nautical Twilight
Astronomical Twilight
Moon
Length of Visible Light
Length of Day
Tomorrow will be .
, % of the Moon is Illuminated

Today's Extremes

State Highs State Lows

Community

WunderPhotos

Upload Photos

1,835,961 photos uploaded!

WunderBlogs® & News

Nearby

Air Quality

  Air Quality AQ Index Pollutant
Not available.

Snow Depth

Station Depth Elevation

Earthquake Activity

City Distance Mag. Time & Date
Minimum magnitude displayed is 2.5.

Coastal Water Temperatures

Place Temperature

Stations

Nearby Weather Stations

Station Location Temp. Windchill Dew Point Humidity Wind Precip. Elev Updated Type
                   
Dense Smoke Advisory
Statement as of 1:18 PM AKDT on July 07, 2015

... Dense smoke advisory remains in effect until 6 am akdt
Wednesday...

* visibility... less than one mile at times.

* Timing... conditions will tend to improve some during the late
afternoon and early evening... except in the immediate vicinity
of fires. Conditions may vary at times depending on wind
direction. Conditions will worsen again by late evening as the
smoke settles.

Precautionary/preparedness actions...

A dense smoke advisory means visibilities are limited to one mile
or less in wildfire smoke. If outdoors... prolonged physical
exertion should be reduced or stopped.